createdAt,value
2022-08-16T00:00:21.966Z,22.89
2022-08-16T00:02:51.830Z,22.77
2022-08-16T00:05:20.856Z,22.73
2022-08-16T00:07:56.356Z,22.70
2022-08-16T00:10:27.706Z,22.66
2022-08-16T00:12:59.017Z,22.64
2022-08-16T00:15:51.371Z,22.62
2022-08-16T00:18:22.074Z,22.59
2022-08-16T00:20:56.886Z,22.57
2022-08-16T00:23:34.813Z,22.55
2022-08-16T00:26:35.876Z,22.52
2022-08-16T00:28:59.204Z,22.41
2022-08-16T00:31:28.086Z,22.36
2022-08-16T00:34:17.992Z,22.33
2022-08-16T00:36:47.660Z,22.29
2022-08-16T00:39:19.766Z,22.24
2022-08-16T00:41:51.557Z,22.24
2022-08-16T00:44:22.546Z,22.24
2022-08-16T00:47:06.768Z,22.23
2022-08-16T00:49:39.686Z,22.23
2022-08-16T00:52:30.373Z,22.20
2022-08-16T00:55:01.642Z,22.17
2022-08-16T00:57:44.551Z,22.16
2022-08-16T01:00:23.772Z,22.10
2022-08-16T01:02:52.911Z,22.04
2022-08-16T01:05:23.896Z,21.99
2022-08-16T01:07:53.174Z,21.94
2022-08-16T01:10:31.279Z,21.89
2022-08-16T01:13:01.655Z,21.83
2022-08-16T01:15:34.152Z,21.87
2022-08-16T01:18:05.865Z,21.88
2022-08-16T01:20:39.536Z,21.84
2022-08-16T01:23:18.526Z,21.80
2022-08-16T01:26:00.396Z,21.74
2022-08-16T01:28:45.259Z,21.72
2022-08-16T01:31:16.325Z,21.72
2022-08-16T01:33:45.065Z,21.73
2022-08-16T01:36:19.835Z,21.71
2022-08-16T01:38:57.261Z,21.69
2022-08-16T01:41:31.489Z,21.70
2022-08-16T01:44:04.055Z,21.70
2022-08-16T01:46:39.810Z,21.65
2022-08-16T01:49:23.438Z,21.61
2022-08-16T01:51:57.445Z,21.57
2022-08-16T01:54:53.500Z,21.56
2022-08-16T01:57:24.711Z,21.56
2022-08-16T01:59:55.025Z,21.53
2022-08-16T02:02:27.134Z,21.55
2022-08-16T02:04:58.314Z,21.51
2022-08-16T02:07:27.980Z,21.50
2022-08-16T02:10:02.273Z,21.49
2022-08-16T02:12:52.603Z,21.48
2022-08-16T02:15:35.445Z,21.44
2022-08-16T02:18:12.470Z,21.38
2022-08-16T02:20:45.504Z,21.38
2022-08-16T02:23:17.143Z,21.36
2022-08-16T02:25:51.967Z,21.32
2022-08-16T02:28:24.803Z,21.31
2022-08-16T02:30:54.065Z,21.30
2022-08-16T02:33:24.463Z,21.30
2022-08-16T02:36:48.237Z,21.27
2022-08-16T02:39:07.070Z,21.19
2022-08-16T02:41:39.556Z,21.10
2022-08-16T02:44:14.099Z,21.02
2022-08-16T02:46:50.536Z,20.85
2022-08-16T02:49:21.126Z,20.76
2022-08-16T02:51:51.035Z,20.68
2022-08-16T02:54:19.754Z,20.58
2022-08-16T02:56:53.986Z,20.45
2022-08-16T02:59:24.185Z,20.29
2022-08-16T03:01:53.104Z,20.23
2022-08-16T03:04:51.241Z,20.27
2022-08-16T03:07:27.731Z,20.26
2022-08-16T03:10:00.513Z,20.24
2022-08-16T03:12:36.722Z,20.32
2022-08-16T03:15:11.445Z,20.37
2022-08-16T03:17:53.193Z,20.44
2022-08-16T03:20:32.473Z,20.49
2022-08-16T03:23:04.385Z,20.51
2022-08-16T03:25:40.948Z,20.51
2022-08-16T03:28:14.336Z,20.52
2022-08-16T03:30:49.038Z,20.51
2022-08-16T03:33:19.185Z,20.58
2022-08-16T03:36:29.876Z,20.57
2022-08-16T03:38:55.191Z,20.59
2022-08-16T03:41:29.562Z,20.57
2022-08-16T03:44:43.956Z,20.57
2022-08-16T03:47:10.273Z,20.55
2022-08-16T03:49:41.135Z,20.51
2022-08-16T03:52:13.667Z,20.49
2022-08-16T03:54:53.346Z,20.49
2022-08-16T03:57:31.473Z,20.46
2022-08-16T04:00:35.322Z,20.46
2022-08-16T04:03:09.065Z,20.45
2022-08-16T04:05:46.815Z,20.48
2022-08-16T04:08:22.738Z,20.51
2022-08-16T04:11:01.250Z,20.53
2022-08-16T04:13:58.734Z,20.52
2022-08-16T04:16:26.397Z,20.50
2022-08-16T04:19:04.402Z,20.49
2022-08-16T04:21:47.175Z,20.46
2022-08-16T04:24:23.215Z,20.40
2022-08-16T04:26:58.470Z,20.45
2022-08-16T04:29:46.183Z,20.51
2022-08-16T04:32:16.660Z,20.54
2022-08-16T04:34:52.800Z,20.63
2022-08-16T04:37:22.530Z,20.71
2022-08-16T04:39:57.781Z,20.82
2022-08-16T04:42:29.873Z,20.88
2022-08-16T04:45:05.066Z,20.92
2022-08-16T04:47:36.181Z,20.85
2022-08-16T04:50:15.137Z,20.85
2022-08-16T04:52:58.045Z,20.90
2022-08-16T04:55:38.357Z,20.94
2022-08-16T04:58:43.711Z,21.02
2022-08-16T05:01:01.058Z,21.22
2022-08-16T05:03:32.295Z,21.31
2022-08-16T05:06:05.108Z,21.46
2022-08-16T05:08:35.211Z,21.55
2022-08-16T05:11:11.306Z,21.65
2022-08-16T05:13:42.982Z,21.71
2022-08-16T05:16:21.692Z,21.81
2022-08-16T05:19:02.382Z,21.90
2022-08-16T05:21:38.881Z,21.95
2022-08-16T05:24:11.759Z,22.08
2022-08-16T05:26:43.120Z,22.19
2022-08-16T05:29:14.674Z,22.16
2022-08-16T05:31:58.426Z,21.88
2022-08-16T05:34:26.987Z,21.77
2022-08-16T05:36:58.674Z,21.77
2022-08-16T05:39:40.723Z,21.70
2022-08-16T05:42:10.674Z,21.76
2022-08-16T05:44:42.224Z,21.86
2022-08-16T05:47:15.310Z,22.06
2022-08-16T05:49:46.566Z,22.08
2022-08-16T05:52:21.854Z,21.96
2022-08-16T05:55:00.927Z,22.10
2022-08-16T05:57:35.465Z,22.21
2022-08-16T06:00:09.301Z,22.46
2022-08-16T06:02:41.476Z,22.62
2022-08-16T06:05:36.054Z,22.77
2022-08-16T06:08:07.217Z,22.91
2022-08-16T06:11:05.667Z,23.08
2022-08-16T06:13:34.866Z,23.21
2022-08-16T06:16:03.175Z,23.34
2022-08-16T06:18:32.216Z,23.50
2022-08-16T06:21:01.277Z,23.65
2022-08-16T06:23:32.287Z,23.77
2022-08-16T06:26:07.710Z,23.77
2022-08-16T06:28:42.015Z,23.76
2022-08-16T06:31:19.366Z,23.90
2022-08-16T06:33:55.386Z,24.06
2022-08-16T06:36:26.651Z,24.18
2022-08-16T06:39:07.856Z,24.32
2022-08-16T06:41:54.396Z,24.50
2022-08-16T06:44:34.026Z,24.55
2022-08-16T06:47:06.986Z,24.64
2022-08-16T06:49:38.028Z,24.72
2022-08-16T06:52:13.960Z,24.86
2022-08-16T06:54:59.346Z,25.09
2022-08-16T06:57:28.007Z,25.20
2022-08-16T06:59:58.452Z,25.30
2022-08-16T07:02:35.860Z,25.49
2022-08-16T07:05:15.157Z,25.59
2022-08-16T07:07:54.030Z,25.72
2022-08-16T07:10:27.791Z,25.77
2022-08-16T07:13:03.767Z,25.94
2022-08-16T07:15:35.931Z,26.08
2022-08-16T07:18:05.932Z,26.17
2022-08-16T07:20:47.427Z,26.27
2022-08-16T07:23:18.581Z,26.43
2022-08-16T07:25:55.702Z,26.55
2022-08-16T07:28:28.012Z,26.61
2022-08-16T07:31:00.101Z,26.59
2022-08-16T07:33:52.427Z,26.72
2022-08-16T07:36:28.994Z,26.78
2022-08-16T07:39:00.663Z,26.91
2022-08-16T07:41:36.412Z,26.99
2022-08-16T07:44:16.323Z,27.12
2022-08-16T07:46:46.492Z,27.16
2022-08-16T07:49:20.289Z,27.23
2022-08-16T07:51:49.301Z,27.36
2022-08-16T07:54:32.117Z,27.37
2022-08-16T07:57:12.427Z,27.42
2022-08-16T07:59:46.221Z,27.51
2022-08-16T08:02:20.605Z,27.64
2022-08-16T08:04:58.261Z,27.80
2022-08-16T08:07:29.461Z,27.83
2022-08-16T08:10:04.002Z,27.91
2022-08-16T08:12:36.843Z,27.97
2022-08-16T08:15:10.625Z,28.10
2022-08-16T08:17:44.052Z,28.19
2022-08-16T08:20:27.874Z,28.23
2022-08-16T08:23:01.306Z,28.27
2022-08-16T08:25:54.226Z,28.33
2022-08-16T08:28:27.409Z,28.32
2022-08-16T08:31:03.783Z,28.48
2022-08-16T08:33:38.007Z,28.68
2022-08-16T08:36:16.319Z,28.80
2022-08-16T08:38:52.866Z,28.88
2022-08-16T08:41:27.719Z,28.98
2022-08-16T08:44:28.788Z,29.12
2022-08-16T08:47:00.409Z,29.11
2022-08-16T08:49:50.616Z,29.32
2022-08-16T08:52:34.536Z,29.40
2022-08-16T08:55:11.456Z,29.74
2022-08-16T08:57:46.094Z,29.96
2022-08-16T09:00:27.099Z,29.95
2022-08-16T09:03:04.496Z,29.87
2022-08-16T09:05:37.345Z,29.71
2022-08-16T09:08:09.896Z,29.63
2022-08-16T09:10:48.028Z,29.72
2022-08-16T09:13:33.392Z,29.90
2022-08-16T09:16:05.136Z,29.89
2022-08-16T09:18:35.709Z,29.96
2022-08-16T09:21:09.502Z,30.21
2022-08-16T09:23:39.526Z,30.61
2022-08-16T09:26:46.067Z,30.83
2022-08-16T09:29:14.697Z,31.01
2022-08-16T09:31:48.038Z,31.09
2022-08-16T09:34:23.036Z,31.22
2022-08-16T09:36:54.559Z,31.32
2022-08-16T09:39:23.580Z,31.45
2022-08-16T09:41:54.226Z,31.54
2022-08-16T09:45:12.988Z,31.59
2022-08-16T09:47:14.340Z,31.69
2022-08-16T09:49:43.053Z,31.89
2022-08-16T09:52:22.420Z,32.09
2022-08-16T09:54:51.293Z,32.07
2022-08-16T09:57:19.928Z,32.00
2022-08-16T09:59:56.424Z,32.20
2022-08-16T10:02:28.047Z,32.48
2022-08-16T10:04:59.119Z,32.49
2022-08-16T10:07:44.086Z,32.32
2022-08-16T10:10:18.959Z,32.27
2022-08-16T10:13:10.205Z,32.12
2022-08-16T10:15:41.784Z,31.93
2022-08-16T10:19:00.208Z,32.13
2022-08-16T10:21:03.425Z,32.50
2022-08-16T10:23:32.155Z,32.64
2022-08-16T10:27:16.554Z,32.72
2022-08-16T10:28:50.345Z,32.72
2022-08-16T10:31:43.519Z,32.78
2022-08-16T10:34:31.773Z,32.72
2022-08-16T10:36:59.227Z,32.88
2022-08-16T10:39:32.890Z,33.04
2022-08-16T10:42:13.285Z,33.23
2022-08-16T10:44:42.888Z,33.28
2022-08-16T10:47:23.567Z,33.38
2022-08-16T10:49:53.806Z,33.43
2022-08-16T10:52:24.311Z,33.54
2022-08-16T10:55:40.313Z,33.60
2022-08-16T10:57:42.569Z,33.60
2022-08-16T11:00:20.781Z,33.72
2022-08-16T11:02:57.879Z,33.80
2022-08-16T11:08:28.307Z,33.87
2022-08-16T11:11:12.850Z,33.78
2022-08-16T11:13:59.314Z,33.66
2022-08-16T11:19:19.298Z,33.88
2022-08-16T11:24:42.383Z,33.41
2022-08-16T11:27:20.525Z,33.12
2022-08-16T11:29:52.278Z,32.86
2022-08-16T11:32:22.661Z,32.60
2022-08-16T11:35:16.271Z,32.39
2022-08-16T11:38:23.510Z,32.25
2022-08-16T11:40:44.184Z,32.05
2022-08-16T11:43:16.589Z,31.98
2022-08-16T11:45:53.407Z,31.98
2022-08-16T11:48:24.844Z,31.98
2022-08-16T11:50:53.967Z,31.90
2022-08-16T11:53:24.547Z,31.80
2022-08-16T11:55:55.186Z,31.73
2022-08-16T11:58:26.386Z,31.75
2022-08-16T12:00:59.507Z,32.13
2022-08-16T12:03:34.676Z,32.42
2022-08-16T12:06:10.668Z,32.47
2022-08-16T12:08:43.160Z,32.75
2022-08-16T12:11:13.457Z,33.12
2022-08-16T12:13:42.927Z,33.40
2022-08-16T12:16:13.049Z,33.46
2022-08-16T12:21:21.539Z,33.90
2022-08-16T12:23:52.836Z,33.99
2022-08-16T12:26:23.899Z,34.18
2022-08-16T12:28:54.793Z,34.44
2022-08-16T12:31:25.993Z,34.49
2022-08-16T12:33:57.421Z,34.29
2022-08-16T12:36:29.909Z,33.90
2022-08-16T12:39:00.752Z,33.65
2022-08-16T12:41:34.773Z,33.73
2022-08-16T12:44:04.910Z,34.14
2022-08-16T12:46:35.452Z,34.42
2022-08-16T12:49:06.851Z,34.54
2022-08-16T12:51:59.092Z,34.48
2022-08-16T12:54:28.675Z,34.39
2022-08-16T12:56:57.933Z,34.36
2022-08-16T12:59:31.073Z,34.28
2022-08-16T13:02:00.995Z,34.10
2022-08-16T13:04:33.515Z,34.30
2022-08-16T13:07:04.903Z,34.47
2022-08-16T13:09:48.152Z,34.20
2022-08-16T13:12:25.060Z,33.81
2022-08-16T13:14:56.247Z,33.80
2022-08-16T13:17:29.710Z,33.68
2022-08-16T13:20:08.967Z,33.52
2022-08-16T13:25:21.274Z,33.71
2022-08-16T13:28:02.881Z,33.53
2022-08-16T13:30:41.838Z,33.38
2022-08-16T13:33:15.808Z,33.12
2022-08-16T13:35:56.022Z,33.08
2022-08-16T13:38:37.101Z,33.13
2022-08-16T13:41:11.004Z,33.08
2022-08-16T13:43:40.886Z,33.00
2022-08-16T13:46:10.074Z,32.96
2022-08-16T13:48:44.440Z,32.89
2022-08-16T13:51:17.802Z,32.89
2022-08-16T13:53:49.658Z,32.91
2022-08-16T13:56:36.790Z,32.91
2022-08-16T13:59:14.251Z,32.88
2022-08-16T14:01:55.888Z,32.79
2022-08-16T14:04:29.550Z,32.71
2022-08-16T14:07:02.418Z,32.27
2022-08-16T14:09:33.174Z,31.97
2022-08-16T14:12:09.566Z,31.68
2022-08-16T14:14:39.178Z,31.46
2022-08-16T14:17:09.779Z,31.36
2022-08-16T14:19:45.059Z,31.18
2022-08-16T14:22:31.318Z,30.89
2022-08-16T14:25:03.486Z,30.57
2022-08-16T14:27:39.108Z,30.27
2022-08-16T14:30:15.527Z,30.22
2022-08-16T14:32:46.875Z,30.46
2022-08-16T14:35:36.389Z,30.63
2022-08-16T14:38:13.554Z,30.70
2022-08-16T14:40:52.679Z,30.93
2022-08-16T14:43:25.749Z,30.99
2022-08-16T14:45:59.119Z,31.04
2022-08-16T14:48:27.784Z,30.92
2022-08-16T14:50:56.667Z,30.77
2022-08-16T14:53:26.392Z,30.83
2022-08-16T14:55:55.914Z,30.85
2022-08-16T14:58:34.937Z,30.81
2022-08-16T15:01:10.023Z,30.87
2022-08-16T15:03:44.482Z,31.06
2022-08-16T15:06:14.400Z,31.10
2022-08-16T15:08:45.822Z,31.10
2022-08-16T15:11:15.736Z,31.06
2022-08-16T15:13:47.954Z,31.13
2022-08-16T15:16:20.637Z,31.25
2022-08-16T15:18:58.576Z,31.18
2022-08-16T15:21:27.454Z,31.07
2022-08-16T15:23:58.801Z,31.11
2022-08-16T15:26:44.729Z,31.10
2022-08-16T15:29:18.117Z,30.99
2022-08-16T15:31:48.239Z,30.78
2022-08-16T15:34:21.890Z,30.62
2022-08-16T15:36:55.275Z,30.54
2022-08-16T15:39:30.525Z,30.58
2022-08-16T15:42:11.245Z,30.64
2022-08-16T15:44:53.041Z,30.67
2022-08-16T15:47:27.373Z,30.65
2022-08-16T15:49:58.147Z,30.65
2022-08-16T15:52:30.669Z,30.59
2022-08-16T15:55:12.763Z,30.48
2022-08-16T15:57:51.349Z,30.48
2022-08-16T16:00:22.396Z,30.52
2022-08-16T16:03:04.134Z,30.47
2022-08-16T16:05:38.885Z,30.38
2022-08-16T16:08:11.756Z,30.34
2022-08-16T16:10:43.585Z,30.22
2022-08-16T16:13:24.607Z,30.18
2022-08-16T16:15:58.258Z,30.02
2022-08-16T16:18:30.273Z,29.89
2022-08-16T16:21:01.997Z,29.74
2022-08-16T16:23:44.439Z,29.68
2022-08-16T16:26:23.387Z,29.65
2022-08-16T16:29:08.551Z,29.57
2022-08-16T16:31:59.586Z,29.49
2022-08-16T16:34:32.277Z,29.45
2022-08-16T16:37:04.336Z,29.44
2022-08-16T16:39:33.008Z,29.41
2022-08-16T16:42:01.736Z,29.42
2022-08-16T16:44:36.281Z,29.46
2022-08-16T16:47:08.167Z,29.46
2022-08-16T16:49:38.306Z,29.40
2022-08-16T16:52:12.305Z,29.41
2022-08-16T16:55:00.448Z,29.42
2022-08-16T16:57:47.407Z,29.42
2022-08-16T17:00:30.378Z,29.37
2022-08-16T17:03:16.816Z,29.37
2022-08-16T17:05:54.167Z,29.33
2022-08-16T17:08:29.425Z,29.30
2022-08-16T17:10:59.760Z,29.26
2022-08-16T17:13:29.208Z,29.24
2022-08-16T17:15:57.642Z,29.18
2022-08-16T17:19:16.139Z,29.16
2022-08-16T17:21:17.578Z,29.08
2022-08-16T17:23:59.167Z,29.05
2022-08-16T17:26:30.975Z,29.05
2022-08-16T17:29:10.980Z,29.05
2022-08-16T17:31:43.537Z,29.02
2022-08-16T17:34:30.493Z,29.01
2022-08-16T17:37:05.369Z,28.97
2022-08-16T17:39:59.776Z,28.92
2022-08-16T17:42:27.346Z,28.85
2022-08-16T17:44:56.041Z,28.80
2022-08-16T17:47:25.069Z,28.72
2022-08-16T17:49:55.051Z,28.67
2022-08-16T17:52:24.269Z,28.53
2022-08-16T17:54:53.069Z,28.43
2022-08-16T17:57:21.816Z,28.37
2022-08-16T17:59:50.949Z,28.26
2022-08-16T18:02:44.065Z,28.25
2022-08-16T18:05:16.648Z,28.11
2022-08-16T18:07:46.099Z,27.91
2022-08-16T18:10:23.754Z,27.70
2022-08-16T18:13:02.980Z,27.53
2022-08-16T18:15:33.079Z,27.40
2022-08-16T18:18:02.138Z,27.30
2022-08-16T18:20:41.877Z,27.17
2022-08-16T18:23:14.986Z,27.01
2022-08-16T18:25:46.700Z,26.90
2022-08-16T18:28:16.308Z,26.79
2022-08-16T18:30:49.432Z,26.75
2022-08-16T18:33:21.369Z,26.64
2022-08-16T18:35:57.053Z,26.57
2022-08-16T18:38:27.168Z,26.49
2022-08-16T18:40:55.937Z,26.34
2022-08-16T18:43:54.691Z,26.22
2022-08-16T18:46:14.460Z,26.07
2022-08-16T18:48:43.178Z,25.99
2022-08-16T18:51:20.282Z,25.94
2022-08-16T18:53:53.881Z,25.90
2022-08-16T18:56:22.609Z,25.81
2022-08-16T18:58:51.318Z,25.78
2022-08-16T19:01:20.360Z,25.68
2022-08-16T19:03:49.749Z,25.66
2022-08-16T19:06:19.893Z,25.63
2022-08-16T19:08:48.808Z,25.54
2022-08-16T19:11:23.488Z,25.43
2022-08-16T19:13:52.378Z,25.32
2022-08-16T19:16:23.553Z,25.23
2022-08-16T19:18:52.090Z,25.12
2022-08-16T19:21:22.313Z,25.09
2022-08-16T19:23:50.872Z,25.06
2022-08-16T19:26:25.728Z,25.05
2022-08-16T19:28:58.433Z,25.00
2022-08-16T19:31:32.181Z,24.98
2022-08-16T19:34:01.853Z,24.94
2022-08-16T19:36:36.331Z,24.91
2022-08-16T19:39:09.376Z,24.82
2022-08-16T19:41:39.921Z,24.77
2022-08-16T19:44:10.029Z,24.77
2022-08-16T19:46:38.855Z,24.75
2022-08-16T19:49:07.662Z,24.69
2022-08-16T19:51:39.391Z,24.61
2022-08-16T19:54:08.286Z,24.47
2022-08-16T19:56:38.490Z,24.35
2022-08-16T19:59:40.535Z,24.32
2022-08-16T20:01:56.520Z,24.30
2022-08-16T20:04:26.065Z,24.23
2022-08-16T20:06:55.962Z,24.13
2022-08-16T20:09:26.526Z,24.07
2022-08-16T20:11:56.676Z,23.98
2022-08-16T20:14:26.538Z,23.91
2022-08-16T20:17:01.518Z,23.85
2022-08-16T20:19:36.121Z,23.82
2022-08-16T20:22:49.889Z,23.76
2022-08-16T20:25:17.305Z,23.61
2022-08-16T20:27:46.112Z,23.60
2022-08-16T20:30:17.098Z,23.64
2022-08-16T20:32:47.405Z,23.72
2022-08-16T20:35:19.147Z,23.83
2022-08-16T20:37:49.278Z,23.87
2022-08-16T20:40:34.216Z,23.93
2022-08-16T20:43:08.238Z,23.91
2022-08-16T20:45:37.522Z,23.90
2022-08-16T20:48:06.837Z,23.92
2022-08-16T20:50:35.685Z,23.90
2022-08-16T20:53:05.972Z,23.72
2022-08-16T20:55:36.626Z,23.67
2022-08-16T20:58:05.646Z,23.66
2022-08-16T21:00:34.704Z,23.65
2022-08-16T21:03:08.035Z,23.63
2022-08-16T21:05:37.054Z,23.67
2022-08-16T21:08:52.545Z,23.71
2022-08-16T21:10:57.652Z,23.64
2022-08-16T21:13:27.055Z,23.64
2022-08-16T21:15:55.573Z,23.58
2022-08-16T21:18:24.603Z,23.50
2022-08-16T21:20:53.942Z,23.38
2022-08-16T21:23:25.004Z,23.31
2022-08-16T21:25:59.263Z,23.26
2022-08-16T21:28:40.480Z,23.16
2022-08-16T21:31:11.914Z,23.12
2022-08-16T21:33:41.054Z,23.12
2022-08-16T21:36:10.524Z,23.05
2022-08-16T21:38:41.286Z,22.98
2022-08-16T21:41:13.205Z,22.96
2022-08-16T21:43:41.977Z,22.92
2022-08-16T21:46:10.824Z,22.88
2022-08-16T21:48:40.639Z,22.82
2022-08-16T21:51:12.199Z,22.75
2022-08-16T21:53:43.745Z,22.74
2022-08-16T21:56:16.841Z,22.80
2022-08-16T21:58:46.396Z,22.81
2022-08-16T22:01:16.770Z,22.79
2022-08-16T22:03:45.485Z,22.80
2022-08-16T22:06:14.837Z,22.76
2022-08-16T22:08:49.612Z,22.67
2022-08-16T22:11:23.232Z,22.72
2022-08-16T22:13:57.879Z,22.66
2022-08-16T22:16:30.134Z,22.61
2022-08-16T22:18:59.018Z,22.46
2022-08-16T22:21:27.772Z,22.48
2022-08-16T22:23:59.079Z,22.42
2022-08-16T22:26:30.993Z,22.39
2022-08-16T22:29:01.843Z,22.29
2022-08-16T22:31:31.012Z,22.23
2022-08-16T22:34:02.016Z,22.20
2022-08-16T22:36:31.294Z,22.20
2022-08-16T22:39:04.608Z,22.11
2022-08-16T22:41:35.250Z,22.13
2022-08-16T22:44:05.856Z,22.10
2022-08-16T22:46:36.735Z,22.06
2022-08-16T22:49:06.728Z,21.98
2022-08-16T22:51:37.517Z,21.88
2022-08-16T22:54:34.242Z,21.77
2022-08-16T22:56:57.860Z,21.71
2022-08-16T22:59:26.451Z,21.68
2022-08-16T23:01:55.415Z,21.68
2022-08-16T23:04:25.282Z,21.63
2022-08-16T23:06:54.500Z,21.56
2022-08-16T23:09:24.644Z,21.49
2022-08-16T23:11:53.825Z,21.45
2022-08-16T23:14:22.525Z,21.40
2022-08-16T23:16:51.274Z,21.34
2022-08-16T23:19:20.022Z,21.30
2022-08-16T23:21:49.543Z,21.31
2022-08-16T23:24:20.735Z,21.22
2022-08-16T23:26:51.178Z,21.21
2022-08-16T23:29:23.665Z,21.18
2022-08-16T23:32:12.694Z,21.18
2022-08-16T23:34:41.831Z,21.23
2022-08-16T23:37:10.480Z,21.22
2022-08-16T23:39:39.322Z,21.33
2022-08-16T23:42:52.821Z,21.40
2022-08-16T23:45:04.793Z,21.32
2022-08-16T23:47:33.405Z,21.49
2022-08-16T23:50:04.217Z,21.52
2022-08-16T23:52:53.945Z,21.61
2022-08-16T23:55:22.378Z,21.64
2022-08-16T23:57:53.304Z,21.63
